sensor_id;sensor_type;location;lat;lon;timestamp;P1;durP1;ratioP1;P2;durP2;ratioP2
11988;SDS011;6054;50.966;7.094;2022-10-12T00:00:16;9.20;;;5.20;;
11988;SDS011;6054;50.966;7.094;2022-10-12T00:02:43;6.68;;;5.18;;
11988;SDS011;6054;50.966;7.094;2022-10-12T00:05:10;6.57;;;4.87;;
11988;SDS011;6054;50.966;7.094;2022-10-12T00:07:37;9.18;;;4.90;;
11988;SDS011;6054;50.966;7.094;2022-10-12T00:10:04;8.52;;;5.15;;
11988;SDS011;6054;50.966;7.094;2022-10-12T00:12:31;7.50;;;4.82;;
11988;SDS011;6054;50.966;7.094;2022-10-12T00:15:00;6.88;;;5.30;;
11988;SDS011;6054;50.966;7.094;2022-10-12T00:17:27;9.95;;;5.15;;
11988;SDS011;6054;50.966;7.094;2022-10-12T00:19:53;5.70;;;4.65;;
11988;SDS011;6054;50.966;7.094;2022-10-12T00:22:20;9.95;;;5.28;;
11988;SDS011;6054;50.966;7.094;2022-10-12T00:24:47;9.90;;;5.30;;
11988;SDS011;6054;50.966;7.094;2022-10-12T00:27:14;7.25;;;5.18;;
11988;SDS011;6054;50.966;7.094;2022-10-12T00:29:40;7.43;;;4.70;;
11988;SDS011;6054;50.966;7.094;2022-10-12T00:32:08;7.80;;;4.22;;
11988;SDS011;6054;50.966;7.094;2022-10-12T00:34:35;5.05;;;4.32;;
11988;SDS011;6054;50.966;7.094;2022-10-12T00:37:02;5.70;;;4.35;;
11988;SDS011;6054;50.966;7.094;2022-10-12T00:39:28;5.30;;;4.20;;
11988;SDS011;6054;50.966;7.094;2022-10-12T00:41:55;6.00;;;4.60;;
11988;SDS011;6054;50.966;7.094;2022-10-12T00:44:35;6.03;;;4.60;;
11988;SDS011;6054;50.966;7.094;2022-10-12T00:47:07;6.67;;;4.40;;
11988;SDS011;6054;50.966;7.094;2022-10-12T00:49:42;6.18;;;4.53;;
11988;SDS011;6054;50.966;7.094;2022-10-12T00:52:12;6.80;;;4.55;;
11988;SDS011;6054;50.966;7.094;2022-10-12T00:54:42;5.90;;;4.20;;
11988;SDS011;6054;50.966;7.094;2022-10-12T00:57:11;9.55;;;4.63;;
11988;SDS011;6054;50.966;7.094;2022-10-12T00:59:42;6.40;;;3.88;;
11988;SDS011;6054;50.966;7.094;2022-10-12T01:02:14;6.20;;;4.07;;
11988;SDS011;6054;50.966;7.094;2022-10-12T01:04:42;6.05;;;4.07;;
11988;SDS011;6054;50.966;7.094;2022-10-12T01:07:10;6.93;;;3.75;;
11988;SDS011;6054;50.966;7.094;2022-10-12T01:09:37;5.55;;;4.30;;
11988;SDS011;6054;50.966;7.094;2022-10-12T01:12:04;6.47;;;4.50;;
11988;SDS011;6054;50.966;7.094;2022-10-12T01:14:32;5.72;;;3.95;;
11988;SDS011;6054;50.966;7.094;2022-10-12T01:17:00;6.67;;;3.80;;
11988;SDS011;6054;50.966;7.094;2022-10-12T01:22:31;4.43;;;3.88;;
11988;SDS011;6054;50.966;7.094;2022-10-12T01:25:07;6.70;;;3.97;;
11988;SDS011;6054;50.966;7.094;2022-10-12T01:27:43;5.78;;;3.55;;
11988;SDS011;6054;50.966;7.094;2022-10-12T01:30:15;6.53;;;4.22;;
11988;SDS011;6054;50.966;7.094;2022-10-12T01:35:36;4.00;;;3.42;;
11988;SDS011;6054;50.966;7.094;2022-10-12T01:38:11;8.57;;;4.33;;
11988;SDS011;6054;50.966;7.094;2022-10-12T01:40:47;5.27;;;3.50;;
11988;SDS011;6054;50.966;7.094;2022-10-12T01:43:32;4.45;;;3.42;;
11988;SDS011;6054;50.966;7.094;2022-10-12T01:46:06;5.47;;;3.80;;
11988;SDS011;6054;50.966;7.094;2022-10-12T01:49:09;6.87;;;3.70;;
11988;SDS011;6054;50.966;7.094;2022-10-12T01:51:39;5.22;;;3.80;;
11988;SDS011;6054;50.966;7.094;2022-10-12T01:54:16;5.72;;;3.67;;
11988;SDS011;6054;50.966;7.094;2022-10-12T01:56:52;5.27;;;3.30;;
11988;SDS011;6054;50.966;7.094;2022-10-12T01:59:24;6.97;;;3.17;;
11988;SDS011;6054;50.966;7.094;2022-10-12T02:02:04;5.40;;;3.35;;
11988;SDS011;6054;50.966;7.094;2022-10-12T02:04:38;5.22;;;3.40;;
11988;SDS011;6054;50.966;7.094;2022-10-12T02:07:15;4.40;;;3.30;;
11988;SDS011;6054;50.966;7.094;2022-10-12T02:09:47;5.33;;;3.33;;
11988;SDS011;6054;50.966;7.094;2022-10-12T02:12:15;6.67;;;3.27;;
11988;SDS011;6054;50.966;7.094;2022-10-12T02:14:46;6.07;;;3.40;;
11988;SDS011;6054;50.966;7.094;2022-10-12T02:17:17;7.73;;;3.43;;
11988;SDS011;6054;50.966;7.094;2022-10-12T02:19:47;5.83;;;3.80;;
11988;SDS011;6054;50.966;7.094;2022-10-12T02:22:17;6.23;;;3.30;;
11988;SDS011;6054;50.966;7.094;2022-10-12T02:24:45;6.57;;;2.80;;
11988;SDS011;6054;50.966;7.094;2022-10-12T02:27:16;4.60;;;2.93;;
11988;SDS011;6054;50.966;7.094;2022-10-12T02:29:45;3.80;;;3.00;;
11988;SDS011;6054;50.966;7.094;2022-10-12T02:32:15;5.07;;;2.70;;
11988;SDS011;6054;50.966;7.094;2022-10-12T02:34:45;3.17;;;2.80;;
11988;SDS011;6054;50.966;7.094;2022-10-12T02:37:20;7.87;;;2.93;;
11988;SDS011;6054;50.966;7.094;2022-10-12T02:39:55;5.10;;;2.70;;
11988;SDS011;6054;50.966;7.094;2022-10-12T02:42:28;4.43;;;2.53;;
11988;SDS011;6054;50.966;7.094;2022-10-12T02:44:59;3.63;;;2.57;;
11988;SDS011;6054;50.966;7.094;2022-10-12T02:47:33;3.30;;;2.42;;
11988;SDS011;6054;50.966;7.094;2022-10-12T02:50:01;4.43;;;2.70;;
11988;SDS011;6054;50.966;7.094;2022-10-12T02:52:29;3.93;;;2.30;;
11988;SDS011;6054;50.966;7.094;2022-10-12T02:54:57;4.87;;;2.53;;
11988;SDS011;6054;50.966;7.094;2022-10-12T02:57:25;2.20;;;2.00;;
11988;SDS011;6054;50.966;7.094;2022-10-12T02:59:51;2.00;;;1.80;;
11988;SDS011;6054;50.966;7.094;2022-10-12T03:02:18;4.77;;;2.20;;
11988;SDS011;6054;50.966;7.094;2022-10-12T03:04:46;6.23;;;2.53;;
11988;SDS011;6054;50.966;7.094;2022-10-12T03:07:13;3.80;;;2.30;;
11988;SDS011;6054;50.966;7.094;2022-10-12T03:09:40;3.03;;;2.80;;
11988;SDS011;6054;50.966;7.094;2022-10-12T03:12:06;4.93;;;2.63;;
11988;SDS011;6054;50.966;7.094;2022-10-12T03:14:33;3.60;;;2.80;;
11988;SDS011;6054;50.966;7.094;2022-10-12T03:17:01;3.87;;;2.23;;
11988;SDS011;6054;50.966;7.094;2022-10-12T03:19:28;2.90;;;2.60;;
11988;SDS011;6054;50.966;7.094;2022-10-12T03:21:56;6.07;;;2.50;;
11988;SDS011;6054;50.966;7.094;2022-10-12T03:24:23;4.50;;;2.50;;
11988;SDS011;6054;50.966;7.094;2022-10-12T03:26:50;2.77;;;2.30;;
11988;SDS011;6054;50.966;7.094;2022-10-12T03:29:16;3.57;;;2.33;;
11988;SDS011;6054;50.966;7.094;2022-10-12T03:31:43;3.93;;;2.10;;
11988;SDS011;6054;50.966;7.094;2022-10-12T03:34:10;4.00;;;2.53;;
11988;SDS011;6054;50.966;7.094;2022-10-12T03:36:37;4.27;;;2.57;;
11988;SDS011;6054;50.966;7.094;2022-10-12T03:39:05;2.80;;;2.50;;
11988;SDS011;6054;50.966;7.094;2022-10-12T03:41:32;6.77;;;2.30;;
11988;SDS011;6054;50.966;7.094;2022-10-12T03:43:58;5.93;;;2.50;;
11988;SDS011;6054;50.966;7.094;2022-10-12T03:46:26;5.03;;;2.83;;
11988;SDS011;6054;50.966;7.094;2022-10-12T03:48:52;4.10;;;2.63;;
11988;SDS011;6054;50.966;7.094;2022-10-12T03:51:19;3.70;;;2.53;;
11988;SDS011;6054;50.966;7.094;2022-10-12T03:53:46;5.33;;;2.30;;
11988;SDS011;6054;50.966;7.094;2022-10-12T03:56:14;6.43;;;2.50;;
11988;SDS011;6054;50.966;7.094;2022-10-12T03:58:41;3.03;;;2.27;;
11988;SDS011;6054;50.966;7.094;2022-10-12T04:01:08;6.97;;;2.60;;
11988;SDS011;6054;50.966;7.094;2022-10-12T04:03:35;4.20;;;2.50;;
11988;SDS011;6054;50.966;7.094;2022-10-12T04:06:01;5.67;;;2.50;;
11988;SDS011;6054;50.966;7.094;2022-10-12T04:08:28;3.93;;;2.30;;
11988;SDS011;6054;50.966;7.094;2022-10-12T04:10:55;3.73;;;2.10;;
11988;SDS011;6054;50.966;7.094;2022-10-12T04:13:23;4.13;;;2.70;;
11988;SDS011;6054;50.966;7.094;2022-10-12T04:15:50;3.13;;;2.43;;
11988;SDS011;6054;50.966;7.094;2022-10-12T04:18:17;4.80;;;2.60;;
11988;SDS011;6054;50.966;7.094;2022-10-12T04:20:45;5.07;;;2.40;;
11988;SDS011;6054;50.966;7.094;2022-10-12T04:23:13;6.53;;;2.10;;
11988;SDS011;6054;50.966;7.094;2022-10-12T04:25:40;2.63;;;2.10;;
11988;SDS011;6054;50.966;7.094;2022-10-12T04:28:07;4.17;;;2.30;;
11988;SDS011;6054;50.966;7.094;2022-10-12T04:30:35;4.97;;;2.53;;
11988;SDS011;6054;50.966;7.094;2022-10-12T04:33:02;6.70;;;2.30;;
11988;SDS011;6054;50.966;7.094;2022-10-12T04:35:29;4.03;;;2.47;;
11988;SDS011;6054;50.966;7.094;2022-10-12T04:37:56;3.47;;;2.20;;
11988;SDS011;6054;50.966;7.094;2022-10-12T04:40:23;4.43;;;2.60;;
11988;SDS011;6054;50.966;7.094;2022-10-12T04:42:50;6.80;;;2.60;;
11988;SDS011;6054;50.966;7.094;2022-10-12T04:45:17;6.53;;;2.30;;
11988;SDS011;6054;50.966;7.094;2022-10-12T04:47:45;2.90;;;2.60;;
11988;SDS011;6054;50.966;7.094;2022-10-12T04:50:12;3.40;;;2.50;;
11988;SDS011;6054;50.966;7.094;2022-10-12T04:52:39;4.33;;;2.43;;
11988;SDS011;6054;50.966;7.094;2022-10-12T04:55:06;2.33;;;2.10;;
11988;SDS011;6054;50.966;7.094;2022-10-12T04:57:33;4.80;;;2.13;;
11988;SDS011;6054;50.966;7.094;2022-10-12T05:00:00;3.87;;;2.30;;
11988;SDS011;6054;50.966;7.094;2022-10-12T05:02:27;4.67;;;2.43;;
11988;SDS011;6054;50.966;7.094;2022-10-12T05:04:55;3.10;;;2.27;;
11988;SDS011;6054;50.966;7.094;2022-10-12T05:07:22;4.43;;;2.90;;
11988;SDS011;6054;50.966;7.094;2022-10-12T05:09:48;5.03;;;2.77;;
11988;SDS011;6054;50.966;7.094;2022-10-12T05:12:15;7.50;;;3.20;;
11988;SDS011;6054;50.966;7.094;2022-10-12T05:14:42;4.27;;;2.40;;
11988;SDS011;6054;50.966;7.094;2022-10-12T05:17:09;4.13;;;2.20;;
11988;SDS011;6054;50.966;7.094;2022-10-12T05:19:36;6.83;;;2.73;;
11988;SDS011;6054;50.966;7.094;2022-10-12T05:22:04;3.30;;;2.40;;
11988;SDS011;6054;50.966;7.094;2022-10-12T05:24:31;4.60;;;2.50;;
11988;SDS011;6054;50.966;7.094;2022-10-12T05:26:58;5.33;;;2.60;;
11988;SDS011;6054;50.966;7.094;2022-10-12T05:29:25;7.53;;;2.40;;
11988;SDS011;6054;50.966;7.094;2022-10-12T05:31:51;4.77;;;2.40;;
11988;SDS011;6054;50.966;7.094;2022-10-12T05:34:18;4.40;;;2.63;;
11988;SDS011;6054;50.966;7.094;2022-10-12T05:36:45;5.23;;;2.50;;
11988;SDS011;6054;50.966;7.094;2022-10-12T05:39:13;5.63;;;2.70;;
11988;SDS011;6054;50.966;7.094;2022-10-12T05:41:40;5.40;;;2.80;;
11988;SDS011;6054;50.966;7.094;2022-10-12T05:44:07;4.97;;;2.43;;
11988;SDS011;6054;50.966;7.094;2022-10-12T05:46:33;4.70;;;2.50;;
11988;SDS011;6054;50.966;7.094;2022-10-12T05:49:00;2.90;;;2.07;;
11988;SDS011;6054;50.966;7.094;2022-10-12T05:51:27;4.63;;;2.37;;
11988;SDS011;6054;50.966;7.094;2022-10-12T05:53:54;4.83;;;2.53;;
11988;SDS011;6054;50.966;7.094;2022-10-12T05:56:22;5.10;;;2.37;;
11988;SDS011;6054;50.966;7.094;2022-10-12T05:58:49;6.23;;;2.30;;
11988;SDS011;6054;50.966;7.094;2022-10-12T06:01:15;3.13;;;2.20;;
11988;SDS011;6054;50.966;7.094;2022-10-12T06:03:42;3.37;;;2.43;;
11988;SDS011;6054;50.966;7.094;2022-10-12T06:06:09;3.03;;;2.40;;
11988;SDS011;6054;50.966;7.094;2022-10-12T06:08:36;4.03;;;2.03;;
11988;SDS011;6054;50.966;7.094;2022-10-12T06:11:03;3.40;;;2.10;;
11988;SDS011;6054;50.966;7.094;2022-10-12T06:13:31;3.20;;;2.50;;
11988;SDS011;6054;50.966;7.094;2022-10-12T06:15:58;5.10;;;2.27;;
11988;SDS011;6054;50.966;7.094;2022-10-12T06:18:24;5.33;;;2.50;;
11988;SDS011;6054;50.966;7.094;2022-10-12T06:20:52;4.53;;;2.23;;
11988;SDS011;6054;50.966;7.094;2022-10-12T06:23:19;2.90;;;2.03;;
11988;SDS011;6054;50.966;7.094;2022-10-12T06:25:47;2.60;;;2.30;;
11988;SDS011;6054;50.966;7.094;2022-10-12T06:28:16;4.00;;;2.37;;
11988;SDS011;6054;50.966;7.094;2022-10-12T06:30:51;4.23;;;2.40;;
11988;SDS011;6054;50.966;7.094;2022-10-12T06:33:18;2.90;;;2.40;;
11988;SDS011;6054;50.966;7.094;2022-10-12T06:35:45;6.33;;;2.23;;
11988;SDS011;6054;50.966;7.094;2022-10-12T06:38:12;5.07;;;2.40;;
11988;SDS011;6054;50.966;7.094;2022-10-12T06:40:38;4.70;;;2.60;;
11988;SDS011;6054;50.966;7.094;2022-10-12T06:43:05;5.57;;;2.43;;
11988;SDS011;6054;50.966;7.094;2022-10-12T06:45:32;4.50;;;2.50;;
11988;SDS011;6054;50.966;7.094;2022-10-12T06:48:00;7.07;;;2.30;;
11988;SDS011;6054;50.966;7.094;2022-10-12T06:50:28;5.13;;;3.30;;
11988;SDS011;6054;50.966;7.094;2022-10-12T06:52:55;4.90;;;2.67;;
11988;SDS011;6054;50.966;7.094;2022-10-12T06:55:21;5.00;;;2.40;;
11988;SDS011;6054;50.966;7.094;2022-10-12T06:57:48;4.90;;;2.50;;
11988;SDS011;6054;50.966;7.094;2022-10-12T07:00:15;4.77;;;3.10;;
11988;SDS011;6054;50.966;7.094;2022-10-12T07:02:42;4.47;;;2.70;;
11988;SDS011;6054;50.966;7.094;2022-10-12T07:05:10;8.47;;;3.03;;
11988;SDS011;6054;50.966;7.094;2022-10-12T07:07:37;4.32;;;2.47;;
11988;SDS011;6054;50.966;7.094;2022-10-12T07:10:04;3.70;;;2.70;;
11988;SDS011;6054;50.966;7.094;2022-10-12T07:12:33;7.57;;;3.40;;
11988;SDS011;6054;50.966;7.094;2022-10-12T07:15:00;3.67;;;2.50;;
11988;SDS011;6054;50.966;7.094;2022-10-12T07:17:27;5.03;;;3.07;;
11988;SDS011;6054;50.966;7.094;2022-10-12T07:19:54;4.23;;;3.27;;
11988;SDS011;6054;50.966;7.094;2022-10-12T07:22:22;5.37;;;3.10;;
11988;SDS011;6054;50.966;7.094;2022-10-12T07:24:49;6.63;;;3.33;;
11988;SDS011;6054;50.966;7.094;2022-10-12T07:27:16;6.47;;;2.93;;
11988;SDS011;6054;50.966;7.094;2022-10-12T07:29:42;4.50;;;3.17;;
11988;SDS011;6054;50.966;7.094;2022-10-12T07:32:09;5.00;;;3.08;;
11988;SDS011;6054;50.966;7.094;2022-10-12T07:34:36;5.10;;;3.50;;
11988;SDS011;6054;50.966;7.094;2022-10-12T07:37:03;6.80;;;4.17;;
11988;SDS011;6054;50.966;7.094;2022-10-12T07:39:31;7.30;;;3.43;;
11988;SDS011;6054;50.966;7.094;2022-10-12T07:41:57;7.40;;;3.40;;
11988;SDS011;6054;50.966;7.094;2022-10-12T07:44:24;4.82;;;3.03;;
11988;SDS011;6054;50.966;7.094;2022-10-12T07:46:51;6.72;;;3.33;;
11988;SDS011;6054;50.966;7.094;2022-10-12T07:49:18;6.13;;;3.15;;
11988;SDS011;6054;50.966;7.094;2022-10-12T07:51:45;6.05;;;3.30;;
11988;SDS011;6054;50.966;7.094;2022-10-12T07:54:12;6.28;;;3.55;;
11988;SDS011;6054;50.966;7.094;2022-10-12T07:56:40;6.05;;;3.33;;
11988;SDS011;6054;50.966;7.094;2022-10-12T07:59:07;6.60;;;3.80;;
11988;SDS011;6054;50.966;7.094;2022-10-12T08:01:34;5.13;;;3.30;;
11988;SDS011;6054;50.966;7.094;2022-10-12T08:04:01;3.85;;;2.88;;
11988;SDS011;6054;50.966;7.094;2022-10-12T08:06:29;8.63;;;3.50;;
11988;SDS011;6054;50.966;7.094;2022-10-12T08:08:57;6.20;;;3.00;;
11988;SDS011;6054;50.966;7.094;2022-10-12T08:11:24;7.65;;;2.40;;
11988;SDS011;6054;50.966;7.094;2022-10-12T08:13:52;5.18;;;2.88;;
11988;SDS011;6054;50.966;7.094;2022-10-12T08:16:20;7.78;;;3.28;;
11988;SDS011;6054;50.966;7.094;2022-10-12T08:18:47;12.75;;;2.70;;
11988;SDS011;6054;50.966;7.094;2022-10-12T08:21:14;7.25;;;2.60;;
11988;SDS011;6054;50.966;7.094;2022-10-12T08:27:04;7.22;;;2.55;;
11988;SDS011;6054;50.966;7.094;2022-10-12T08:29:32;6.18;;;2.55;;
11988;SDS011;6054;50.966;7.094;2022-10-12T08:31:59;6.35;;;2.00;;
11988;SDS011;6054;50.966;7.094;2022-10-12T08:34:26;9.82;;;2.20;;
11988;SDS011;6054;50.966;7.094;2022-10-12T08:36:57;3.70;;;2.13;;
11988;SDS011;6054;50.966;7.094;2022-10-12T08:39:24;6.78;;;2.25;;
11988;SDS011;6054;50.966;7.094;2022-10-12T08:41:53;8.95;;;2.58;;
11988;SDS011;6054;50.966;7.094;2022-10-12T08:44:43;6.82;;;2.65;;
11988;SDS011;6054;50.966;7.094;2022-10-12T08:47:26;8.57;;;2.50;;
11988;SDS011;6054;50.966;7.094;2022-10-12T08:49:59;6.80;;;2.22;;
11988;SDS011;6054;50.966;7.094;2022-10-12T08:52:29;6.15;;;2.42;;
11988;SDS011;6054;50.966;7.094;2022-10-12T08:55:00;5.57;;;2.67;;
11988;SDS011;6054;50.966;7.094;2022-10-12T08:57:31;6.05;;;2.28;;
11988;SDS011;6054;50.966;7.094;2022-10-12T09:00:01;6.07;;;2.47;;
11988;SDS011;6054;50.966;7.094;2022-10-12T09:02:37;6.13;;;2.60;;
11988;SDS011;6054;50.966;7.094;2022-10-12T09:05:22;5.20;;;2.20;;
11988;SDS011;6054;50.966;7.094;2022-10-12T09:07:54;7.28;;;2.53;;
11988;SDS011;6054;50.966;7.094;2022-10-12T09:10:30;7.55;;;2.50;;
11988;SDS011;6054;50.966;7.094;2022-10-12T09:13:09;8.50;;;2.38;;
11988;SDS011;6054;50.966;7.094;2022-10-12T09:15:48;6.88;;;2.67;;
11988;SDS011;6054;50.966;7.094;2022-10-12T09:18:20;5.35;;;2.45;;
11988;SDS011;6054;50.966;7.094;2022-10-12T09:20:52;11.02;;;2.70;;
11988;SDS011;6054;50.966;7.094;2022-10-12T09:23:22;12.02;;;2.72;;
11988;SDS011;6054;50.966;7.094;2022-10-12T09:26:00;5.82;;;2.22;;
11988;SDS011;6054;50.966;7.094;2022-10-12T09:28:38;10.35;;;2.60;;
11988;SDS011;6054;50.966;7.094;2022-10-12T09:31:14;6.18;;;2.58;;
11988;SDS011;6054;50.966;7.094;2022-10-12T09:34:00;8.32;;;2.60;;
11988;SDS011;6054;50.966;7.094;2022-10-12T09:36:32;7.03;;;2.50;;
11988;SDS011;6054;50.966;7.094;2022-10-12T09:39:01;5.90;;;2.38;;
11988;SDS011;6054;50.966;7.094;2022-10-12T09:41:31;4.72;;;2.22;;
11988;SDS011;6054;50.966;7.094;2022-10-12T09:44:01;7.07;;;3.08;;
11988;SDS011;6054;50.966;7.094;2022-10-12T09:46:34;7.38;;;2.30;;
11988;SDS011;6054;50.966;7.094;2022-10-12T09:49:05;7.93;;;2.63;;
11988;SDS011;6054;50.966;7.094;2022-10-12T09:51:33;7.18;;;2.67;;
11988;SDS011;6054;50.966;7.094;2022-10-12T09:54:01;7.40;;;2.40;;
11988;SDS011;6054;50.966;7.094;2022-10-12T09:56:33;7.13;;;2.30;;
11988;SDS011;6054;50.966;7.094;2022-10-12T09:59:04;8.85;;;2.53;;
11988;SDS011;6054;50.966;7.094;2022-10-12T10:01:34;5.20;;;2.42;;
11988;SDS011;6054;50.966;7.094;2022-10-12T10:06:48;5.72;;;2.63;;
11988;SDS011;6054;50.966;7.094;2022-10-12T10:09:25;6.90;;;2.17;;
11988;SDS011;6054;50.966;7.094;2022-10-12T10:11:56;8.20;;;2.13;;
11988;SDS011;6054;50.966;7.094;2022-10-12T10:14:24;5.90;;;2.20;;
11988;SDS011;6054;50.966;7.094;2022-10-12T10:16:52;8.07;;;2.38;;
11988;SDS011;6054;50.966;7.094;2022-10-12T10:19:20;5.22;;;2.22;;
11988;SDS011;6054;50.966;7.094;2022-10-12T10:21:51;7.30;;;2.40;;
11988;SDS011;6054;50.966;7.094;2022-10-12T10:24:22;8.10;;;2.20;;
11988;SDS011;6054;50.966;7.094;2022-10-12T10:26:53;6.88;;;2.47;;
11988;SDS011;6054;50.966;7.094;2022-10-12T10:29:32;8.13;;;2.58;;
11988;SDS011;6054;50.966;7.094;2022-10-12T10:32:15;6.45;;;2.40;;
11988;SDS011;6054;50.966;7.094;2022-10-12T10:35:01;5.03;;;2.20;;
11988;SDS011;6054;50.966;7.094;2022-10-12T10:37:29;8.48;;;2.17;;
11988;SDS011;6054;50.966;7.094;2022-10-12T10:39:57;6.65;;;2.13;;
11988;SDS011;6054;50.966;7.094;2022-10-12T10:42:25;6.05;;;2.15;;
11988;SDS011;6054;50.966;7.094;2022-10-12T10:44:56;6.32;;;2.78;;
11988;SDS011;6054;50.966;7.094;2022-10-12T10:47:26;7.82;;;2.45;;
11988;SDS011;6054;50.966;7.094;2022-10-12T10:49:55;4.30;;;1.52;;
11988;SDS011;6054;50.966;7.094;2022-10-12T10:52:25;5.47;;;1.90;;
11988;SDS011;6054;50.966;7.094;2022-10-12T10:57:46;4.65;;;1.75;;
11988;SDS011;6054;50.966;7.094;2022-10-12T11:00:24;8.82;;;2.10;;
11988;SDS011;6054;50.966;7.094;2022-10-12T11:02:57;4.78;;;2.30;;
11988;SDS011;6054;50.966;7.094;2022-10-12T11:05:30;6.15;;;2.63;;
11988;SDS011;6054;50.966;7.094;2022-10-12T11:08:01;5.28;;;2.03;;
11988;SDS011;6054;50.966;7.094;2022-10-12T11:10:31;6.63;;;2.22;;
11988;SDS011;6054;50.966;7.094;2022-10-12T11:13:05;7.30;;;2.03;;
11988;SDS011;6054;50.966;7.094;2022-10-12T11:15:38;2.97;;;1.80;;
11988;SDS011;6054;50.966;7.094;2022-10-12T11:18:12;5.65;;;2.10;;
11988;SDS011;6054;50.966;7.094;2022-10-12T11:20:49;3.03;;;1.65;;
11988;SDS011;6054;50.966;7.094;2022-10-12T11:23:22;4.25;;;1.80;;
11988;SDS011;6054;50.966;7.094;2022-10-12T11:25:58;5.97;;;1.92;;
11988;SDS011;6054;50.966;7.094;2022-10-12T11:28:31;7.07;;;2.45;;
11988;SDS011;6054;50.966;7.094;2022-10-12T11:31:05;4.45;;;1.92;;
11988;SDS011;6054;50.966;7.094;2022-10-12T11:33:43;3.45;;;1.98;;
11988;SDS011;6054;50.966;7.094;2022-10-12T11:36:12;5.28;;;2.05;;
11988;SDS011;6054;50.966;7.094;2022-10-12T11:38:45;3.95;;;1.85;;
11988;SDS011;6054;50.966;7.094;2022-10-12T11:41:16;4.18;;;1.95;;
11988;SDS011;6054;50.966;7.094;2022-10-12T11:43:47;7.28;;;2.10;;
11988;SDS011;6054;50.966;7.094;2022-10-12T11:46:18;7.05;;;2.20;;
11988;SDS011;6054;50.966;7.094;2022-10-12T11:49:05;5.25;;;2.38;;
11988;SDS011;6054;50.966;7.094;2022-10-12T11:51:34;7.00;;;2.20;;
11988;SDS011;6054;50.966;7.094;2022-10-12T11:54:04;6.18;;;2.10;;
11988;SDS011;6054;50.966;7.094;2022-10-12T11:56:38;6.45;;;2.22;;
11988;SDS011;6054;50.966;7.094;2022-10-12T11:59:10;5.40;;;2.05;;
11988;SDS011;6054;50.966;7.094;2022-10-12T12:02:02;8.25;;;2.20;;
11988;SDS011;6054;50.966;7.094;2022-10-12T12:04:38;5.47;;;2.25;;
11988;SDS011;6054;50.966;7.094;2022-10-12T12:13:17;8.15;;;2.30;;
11988;SDS011;6054;50.966;7.094;2022-10-12T12:19:12;6.03;;;2.50;;
11988;SDS011;6054;50.966;7.094;2022-10-12T12:24:58;6.18;;;2.80;;
11988;SDS011;6054;50.966;7.094;2022-10-12T12:27:44;5.93;;;2.78;;
11988;SDS011;6054;50.966;7.094;2022-10-12T12:30:20;9.98;;;3.45;;
11988;SDS011;6054;50.966;7.094;2022-10-12T12:32:54;7.30;;;3.40;;
11988;SDS011;6054;50.966;7.094;2022-10-12T12:35:24;6.50;;;2.90;;
11988;SDS011;6054;50.966;7.094;2022-10-12T12:37:59;5.50;;;2.67;;
11988;SDS011;6054;50.966;7.094;2022-10-12T12:40:34;7.95;;;3.10;;
11988;SDS011;6054;50.966;7.094;2022-10-12T12:43:17;8.32;;;2.90;;
11988;SDS011;6054;50.966;7.094;2022-10-12T12:45:52;7.07;;;2.85;;
11988;SDS011;6054;50.966;7.094;2022-10-12T12:51:21;5.65;;;2.90;;
11988;SDS011;6054;50.966;7.094;2022-10-12T12:53:58;4.93;;;2.70;;
11988;SDS011;6054;50.966;7.094;2022-10-12T12:56:29;8.30;;;3.10;;
11988;SDS011;6054;50.966;7.094;2022-10-12T12:59:15;5.63;;;2.83;;
11988;SDS011;6054;50.966;7.094;2022-10-12T13:02:11;6.63;;;3.08;;
11988;SDS011;6054;50.966;7.094;2022-10-12T13:04:59;6.57;;;2.70;;
11988;SDS011;6054;50.966;7.094;2022-10-12T13:07:47;7.35;;;2.65;;
11988;SDS011;6054;50.966;7.094;2022-10-12T13:10:31;11.85;;;3.58;;
11988;SDS011;6054;50.966;7.094;2022-10-12T13:13:12;6.10;;;2.80;;
11988;SDS011;6054;50.966;7.094;2022-10-12T13:15:59;6.78;;;2.42;;
11988;SDS011;6054;50.966;7.094;2022-10-12T13:21:23;5.30;;;3.00;;
11988;SDS011;6054;50.966;7.094;2022-10-12T13:23:52;7.85;;;3.50;;
11988;SDS011;6054;50.966;7.094;2022-10-12T13:26:31;7.60;;;3.08;;
11988;SDS011;6054;50.966;7.094;2022-10-12T13:29:01;5.78;;;2.83;;
11988;SDS011;6054;50.966;7.094;2022-10-12T13:31:33;5.35;;;2.70;;
11988;SDS011;6054;50.966;7.094;2022-10-12T13:34:04;9.65;;;3.30;;
11988;SDS011;6054;50.966;7.094;2022-10-12T13:36:44;9.23;;;3.13;;
11988;SDS011;6054;50.966;7.094;2022-10-12T13:39:15;6.10;;;2.92;;
11988;SDS011;6054;50.966;7.094;2022-10-12T13:41:58;7.93;;;3.03;;
11988;SDS011;6054;50.966;7.094;2022-10-12T13:44:28;7.97;;;3.53;;
11988;SDS011;6054;50.966;7.094;2022-10-12T13:46:59;6.10;;;3.40;;
11988;SDS011;6054;50.966;7.094;2022-10-12T13:49:27;6.15;;;3.33;;
11988;SDS011;6054;50.966;7.094;2022-10-12T13:52:15;6.57;;;3.63;;
11988;SDS011;6054;50.966;7.094;2022-10-12T13:54:47;7.57;;;3.25;;
11988;SDS011;6054;50.966;7.094;2022-10-12T13:57:18;9.13;;;3.20;;
11988;SDS011;6054;50.966;7.094;2022-10-12T13:59:53;9.20;;;2.88;;
11988;SDS011;6054;50.966;7.094;2022-10-12T14:02:23;7.65;;;3.20;;
11988;SDS011;6054;50.966;7.094;2022-10-12T14:04:54;5.20;;;2.88;;
11988;SDS011;6054;50.966;7.094;2022-10-12T14:07:22;8.40;;;3.20;;
11988;SDS011;6054;50.966;7.094;2022-10-12T14:09:52;9.90;;;3.10;;
11988;SDS011;6054;50.966;7.094;2022-10-12T14:12:22;4.93;;;2.88;;
11988;SDS011;6054;50.966;7.094;2022-10-12T14:35:36;6.47;;;3.25;;
11988;SDS011;6054;50.966;7.094;2022-10-12T14:44:04;8.85;;;3.03;;
11988;SDS011;6054;50.966;7.094;2022-10-12T14:46:35;5.20;;;2.58;;
11988;SDS011;6054;50.966;7.094;2022-10-12T14:49:02;7.53;;;3.33;;
11988;SDS011;6054;50.966;7.094;2022-10-12T14:51:31;6.00;;;3.08;;
11988;SDS011;6054;50.966;7.094;2022-10-12T14:53:58;7.63;;;3.00;;
11988;SDS011;6054;50.966;7.094;2022-10-12T14:56:28;7.82;;;2.97;;
11988;SDS011;6054;50.966;7.094;2022-10-12T14:58:55;5.35;;;2.58;;
11988;SDS011;6054;50.966;7.094;2022-10-12T15:01:21;5.60;;;3.08;;
11988;SDS011;6054;50.966;7.094;2022-10-12T15:03:49;8.07;;;3.85;;
11988;SDS011;6054;50.966;7.094;2022-10-12T15:06:16;10.38;;;3.72;;
11988;SDS011;6054;50.966;7.094;2022-10-12T15:08:44;6.53;;;3.10;;
11988;SDS011;6054;50.966;7.094;2022-10-12T15:11:11;6.07;;;3.17;;
11988;SDS011;6054;50.966;7.094;2022-10-12T15:13:39;5.90;;;2.83;;
11988;SDS011;6054;50.966;7.094;2022-10-12T15:16:09;10.30;;;3.25;;
11988;SDS011;6054;50.966;7.094;2022-10-12T15:18:43;6.35;;;3.05;;
11988;SDS011;6054;50.966;7.094;2022-10-12T15:21:10;6.07;;;2.80;;
11988;SDS011;6054;50.966;7.094;2022-10-12T15:23:38;6.90;;;3.03;;
11988;SDS011;6054;50.966;7.094;2022-10-12T15:26:08;6.10;;;2.83;;
11988;SDS011;6054;50.966;7.094;2022-10-12T15:28:37;8.82;;;3.60;;
11988;SDS011;6054;50.966;7.094;2022-10-12T15:31:03;8.93;;;3.40;;
11988;SDS011;6054;50.966;7.094;2022-10-12T15:33:30;7.38;;;3.28;;
11988;SDS011;6054;50.966;7.094;2022-10-12T15:35:57;7.57;;;3.28;;
11988;SDS011;6054;50.966;7.094;2022-10-12T15:38:24;4.47;;;2.75;;
11988;SDS011;6054;50.966;7.094;2022-10-12T15:40:51;6.50;;;2.90;;
11988;SDS011;6054;50.966;7.094;2022-10-12T15:43:23;10.55;;;3.25;;
11988;SDS011;6054;50.966;7.094;2022-10-12T15:45:50;7.78;;;3.10;;
11988;SDS011;6054;50.966;7.094;2022-10-12T15:48:17;6.55;;;3.00;;
11988;SDS011;6054;50.966;7.094;2022-10-12T15:50:44;6.97;;;3.00;;
11988;SDS011;6054;50.966;7.094;2022-10-12T15:53:14;7.80;;;3.17;;
11988;SDS011;6054;50.966;7.094;2022-10-12T15:55:42;4.35;;;2.35;;
11988;SDS011;6054;50.966;7.094;2022-10-12T15:58:09;6.72;;;2.67;;
11988;SDS011;6054;50.966;7.094;2022-10-12T16:00:37;4.60;;;2.45;;
11988;SDS011;6054;50.966;7.094;2022-10-12T16:03:03;6.30;;;2.47;;
11988;SDS011;6054;50.966;7.094;2022-10-12T16:05:31;5.50;;;2.70;;
11988;SDS011;6054;50.966;7.094;2022-10-12T16:07:59;7.97;;;2.78;;
11988;SDS011;6054;50.966;7.094;2022-10-12T16:10:30;8.88;;;3.30;;
11988;SDS011;6054;50.966;7.094;2022-10-12T16:12:58;5.53;;;2.58;;
11988;SDS011;6054;50.966;7.094;2022-10-12T16:15:27;7.40;;;2.55;;
11988;SDS011;6054;50.966;7.094;2022-10-12T16:17:57;5.82;;;2.80;;